Time;durP1;ratioP1;P1;durP2;ratioP2;P2;SDS_P1;SDS_P2;PMS_P1;PMS_P2;Temp;Humidity;BMP_temperature;BMP_pressure;BME280_temperature;BME280_humidity;BME280_pressure;Samples;Min_cycle;Max_cycle;Signal;HPM_P1;HPM_P2
2022/09/24 00:00:37;;;;;;;16.55;9.63;;;;;;;7.58;91.90;98354.25;4186701;28;20080;-70
2022/09/24 00:02:37;;;;;;;17.50;10.00;;;;;;;7.54;92.26;98350.66;4174599;28;20139;-70
2022/09/24 00:04:38;;;;;;;18.45;10.23;;;;;;;7.51;92.13;98356.84;4185080;28;20386;-70
2022/09/24 00:06:46;;;;;;;15.65;10.20;;;;;;;7.47;92.18;98349.69;4185901;28;20089;-70
2022/09/24 00:08:49;;;;;;;20.30;11.10;;;;;;;7.45;92.70;98347.31;4185870;28;20519;-70
2022/09/24 00:10:49;;;;;;;;;;;;;;;7.45;92.81;98344.56;4187309;28;20564;-70
2022/09/24 00:12:51;;;;;;;12.40;8.15;;;;;;;7.39;92.91;98357.00;4185832;28;19920;-70
2022/09/24 00:14:51;;;;;;;12.35;8.02;;;;;;;7.31;93.82;98347.78;4185904;28;20045;-70
2022/09/24 00:16:51;;;;;;;14.05;7.82;;;;;;;7.29;94.60;98354.81;4184501;28;20056;-70
2022/09/24 00:18:53;;;;;;;11.20;7.07;;;;;;;7.24;95.11;98342.13;4185818;28;20381;-70
2022/09/24 00:20:53;;;;;;;9.52;7.65;;;;;;;7.21;94.97;98347.56;4186293;28;20754;-70
2022/09/24 00:22:53;;;;;;;8.25;6.70;;;;;;;7.17;95.17;98341.97;4185990;28;20079;-70
2022/09/24 00:27:17;;;;;;;10.25;7.18;;;;;;;7.02;95.04;98340.81;4156653;28;20045;-70
2022/09/24 00:29:21;;;;;;;9.88;7.03;;;;;;;6.99;95.26;98338.00;4185356;28;20380;-70
2022/09/24 00:31:21;;;;;;;10.60;6.90;;;;;;;6.98;96.33;98348.22;4184725;28;20045;-69
2022/09/24 00:33:22;;;;;;;12.02;6.72;;;;;;;6.96;96.37;98336.78;4186730;28;20067;-70
2022/09/24 00:35:22;;;;;;;9.10;6.68;;;;;;;6.93;95.31;98337.47;4186402;28;20068;-70
2022/09/24 00:37:22;;;;;;;9.23;6.20;;;;;;;6.92;95.77;98351.59;4186805;28;20045;-70
2022/09/24 00:39:23;;;;;;;8.63;6.18;;;;;;;6.86;95.92;98344.75;4186450;28;20131;-69
2022/09/24 00:41:30;;;;;;;8.68;6.53;;;;;;;6.83;95.58;98343.53;4186155;28;20048;-70
2022/09/24 00:43:36;;;;;;;6.63;5.75;;;;;;;6.83;95.46;98346.28;4185419;28;20049;-70
2022/09/24 00:45:36;;;;;;;8.00;6.00;;;;;;;6.81;94.34;98334.84;4185577;28;20044;-70
2022/09/24 00:47:41;;;;;;;8.68;6.18;;;;;;;6.84;93.79;98336.06;4177079;28;20115;-69
2022/09/24 00:49:42;;;;;;;7.78;6.22;;;;;;;6.80;93.75;98329.69;4185505;28;20611;-70
2022/09/24 00:51:47;;;;;;;8.88;6.57;;;;;;;6.80;94.07;98336.00;4184962;28;20474;-70
2022/09/24 00:53:54;;;;;;;11.68;6.68;;;;;;;6.79;94.28;98336.34;4185864;28;20122;-69
2022/09/24 00:55:55;;;;;;;9.15;6.30;;;;;;;6.74;93.60;98337.41;4186041;28;20067;-69
2022/09/24 00:57:58;;;;;;;8.13;6.63;;;;;;;6.66;94.08;98333.69;4186070;28;20056;-70
2022/09/24 00:59:58;;;;;;;10.35;5.97;;;;;;;6.66;93.84;98330.16;4185116;28;20048;-69
2022/09/24 01:01:58;;;;;;;10.63;6.75;;;;;;;6.63;93.81;98326.16;4185679;28;20110;-69
2022/09/24 01:04:00;;;;;;;10.52;7.13;;;;;;;6.61;94.81;98328.44;4185919;28;20052;-69
2022/09/24 01:06:00;;;;;;;7.95;6.50;;;;;;;6.55;95.30;98335.38;4185591;28;20401;-69
2022/09/24 01:08:01;;;;;;;10.38;7.40;;;;;;;6.50;95.32;98332.09;4185340;28;20476;-70
2022/09/24 01:10:03;;;;;;;9.70;7.10;;;;;;;6.43;95.45;98325.25;4185268;28;20044;-70
2022/09/24 01:12:32;;;;;;;8.75;6.55;;;;;;;6.43;95.42;98324.47;4184133;28;20059;-70
2022/09/24 01:14:42;;;;;;;8.10;6.55;;;;;;;6.38;95.42;98324.75;4185450;28;20045;-69
2022/09/24 01:16:45;;;;;;;9.40;6.93;;;;;;;6.34;95.41;98324.63;4186118;28;20056;-70
2022/09/24 01:18:53;;;;;;;9.30;6.40;;;;;;;6.28;95.83;98325.25;4184823;28;20079;-70
2022/09/24 01:21:08;;;;;;;9.57;6.68;;;;;;;6.24;95.98;98324.38;4172451;28;20045;-69
2022/09/24 01:23:37;;;;;;;10.05;6.18;;;;;;;6.23;95.94;98318.09;4185346;28;20131;-69
2022/09/24 01:25:47;;;;;;;9.65;7.40;;;;;;;6.24;95.19;98325.16;4184356;28;20063;-69
2022/09/24 01:28:32;;;;;;;8.48;6.97;;;;;;;6.21;95.52;98325.88;4185508;28;20369;-69
2022/09/24 01:30:37;;;;;;;11.57;8.00;;;;;;;6.16;96.12;98315.16;4121152;28;20050;-70
2022/09/24 01:32:44;;;;;;;10.15;7.18;;;;;;;6.12;96.41;98317.81;4162155;28;20044;-69
2022/09/24 01:35:00;;;;;;;10.00;7.63;;;;;;;6.10;96.10;98308.31;4182855;28;20484;-70
2022/09/24 01:37:02;;;;;;;11.88;8.02;;;;;;;6.07;96.05;98320.00;4185334;28;20049;-69
2022/09/24 01:39:05;;;;;;;9.55;6.70;;;;;;;6.04;96.85;98316.03;4185066;28;20068;-69
2022/09/24 01:41:09;;;;;;;8.77;6.88;;;;;;;5.98;97.34;98316.63;4188318;28;20090;-70
2022/09/24 01:43:11;;;;;;;10.18;6.75;;;;;;;5.92;97.62;98310.59;4177992;28;20069;-70
2022/09/24 01:45:14;;;;;;;9.27;6.93;;;;;;;5.89;97.61;98309.31;4188701;28;20045;-70
2022/09/24 01:47:24;;;;;;;11.05;6.90;;;;;;;5.86;97.90;98303.72;4187940;28;20084;-69
2022/09/24 01:49:25;;;;;;;11.25;6.63;;;;;;;5.87;97.98;98308.06;4184407;28;20071;-69
2022/09/24 01:51:40;;;;;;;8.55;7.10;;;;;;;5.87;97.60;98308.06;4188220;28;20036;-69
2022/09/24 01:53:53;;;;;;;9.02;7.20;;;;;;;5.88;97.47;98317.91;4188127;28;20071;-69
2022/09/24 01:56:04;;;;;;;8.05;6.28;;;;;;;5.86;96.53;98312.75;4187926;28;20057;-69
2022/09/24 01:58:09;;;;;;;9.90;6.55;;;;;;;5.82;96.05;98309.13;4187048;28;20289;-70
2022/09/24 02:00:12;;;;;;;10.25;6.13;;;;;;;5.79;97.50;98311.75;4188019;28;21068;-70
2022/09/24 02:02:44;;;;;;;8.40;6.68;;;;;;;5.79;97.87;98309.84;4187929;28;20040;-70
2022/09/24 02:04:49;;;;;;;9.40;7.05;;;;;;;5.76;98.13;98306.97;4188312;28;20044;-69
2022/09/24 02:07:00;;;;;;;8.30;6.63;;;;;;;5.69;98.54;98302.06;4187972;28;20066;-69
2022/09/24 02:09:01;;;;;;;11.13;6.72;;;;;;;5.66;98.36;98299.25;4187045;28;20063;-69
2022/09/24 02:11:22;;;;;;;9.85;6.40;;;;;;;5.66;98.62;98302.00;4188107;28;20547;-69
2022/09/24 02:13:26;;;;;;;10.82;6.78;;;;;;;5.58;98.89;98290.81;4187479;28;20052;-69
2022/09/24 02:15:32;;;;;;;6.93;6.10;;;;;;;5.58;98.71;98292.75;4187850;28;20036;-69
2022/09/24 02:17:35;;;;;;;8.85;6.40;;;;;;;5.51;99.20;98293.34;4188009;28;20486;-69
2022/09/24 02:19:39;;;;;;;9.55;7.05;;;;;;;5.48;100.00;98294.06;4187480;28;20056;-69
2022/09/24 02:21:41;;;;;;;8.50;6.68;;;;;;;5.48;100.00;98287.78;4187800;28;20052;-69
2022/09/24 02:23:54;;;;;;;8.68;6.35;;;;;;;5.52;98.29;98285.91;4177307;28;20328;-69
2022/09/24 02:25:57;;;;;;;;;;;;;;;5.52;98.67;98286.72;4187352;28;20354;-69
2022/09/24 02:27:57;;;;;;;;;;;;;;;5.51;98.98;98290.59;4188103;28;19919;-69
2022/09/24 02:29:59;;;;;;;7.70;5.80;;;;;;;5.51;97.56;98287.06;4187337;28;20264;-69
2022/09/24 02:32:00;;;;;;;6.90;5.95;;;;;;;5.50;96.46;98288.22;4187884;28;20052;-69
2022/09/24 02:34:22;;;;;;;8.73;5.85;;;;;;;5.50;96.68;98293.72;4187110;28;20028;-70
2022/09/24 02:36:23;;;;;;;8.52;6.15;;;;;;;5.51;97.24;98287.88;4187552;28;20151;-70
2022/09/24 02:38:24;;;;;;;7.00;5.75;;;;;;;5.54;97.51;98289.91;4187298;28;20581;-70
2022/09/24 02:40:24;;;;;;;6.80;5.55;;;;;;;5.54;97.15;98287.16;4187286;28;20121;-69
2022/09/24 02:48:18;;;;;;;8.75;6.43;;;;;;;5.61;96.58;98262.66;4186345;28;20338;-69
2022/09/24 02:50:18;;;;;;;7.13;5.68;;;;;;;5.56;97.03;98262.13;4187288;28;20107;-69
2022/09/24 02:52:19;;;;;;;7.53;5.53;;;;;;;5.48;98.46;98263.06;4185759;28;20036;-69
2022/09/24 02:54:20;;;;;;;9.02;6.13;;;;;;;5.41;98.45;98257.38;4187407;28;20033;-69
2022/09/24 02:56:21;;;;;;;9.65;6.43;;;;;;;5.39;98.67;98252.25;4185059;28;20086;-69
2022/09/24 02:58:21;;;;;;;8.57;6.40;;;;;;;5.35;99.57;98245.84;4187079;28;20051;-69
2022/09/24 03:00:22;;;;;;;7.70;5.57;;;;;;;5.36;99.25;98247.44;4187184;28;20044;-69
2022/09/24 03:02:22;;;;;;;7.03;5.90;;;;;;;5.38;98.97;98244.34;4186997;28;20102;-69
2022/09/24 03:07:21;;;;;;;9.50;5.50;;;;;;;5.41;98.86;98238.19;4187954;28;20075;-69
2022/09/24 03:09:21;;;;;;;8.45;5.78;;;;;;;5.40;97.33;98237.38;4186619;28;20041;-69
2022/09/24 03:11:23;;;;;;;6.75;5.43;;;;;;;5.39;98.19;98233.06;4186360;28;20507;-69
2022/09/24 03:13:23;;;;;;;7.53;5.53;;;;;;;5.39;98.87;98235.00;4186511;28;20053;-69
2022/09/24 03:18:21;;;;;;;8.82;6.10;;;;;;;5.40;99.97;98245.63;4186205;28;20051;-69
2022/09/24 03:20:23;;;;;;;6.13;5.53;;;;;;;5.43;99.94;98239.41;4186908;28;20052;-69
2022/09/24 03:25:46;;;;;;;8.07;5.78;;;;;;;5.55;98.09;98238.59;4186304;28;20071;-69
2022/09/24 03:27:46;;;;;;;10.30;5.63;;;;;;;5.51;98.23;98248.66;4186638;28;20122;-69
2022/09/24 03:32:05;;;;;;;6.80;5.88;;;;;;;5.50;100.00;98244.31;4186024;28;20130;-69
2022/09/24 03:37:02;;;;;;;7.68;5.50;;;;;;;5.59;99.40;98223.78;4185030;28;20606;-69
2022/09/24 03:39:02;;;;;;;7.80;6.15;;;;;;;5.58;100.00;98226.88;4184817;28;20048;-69
2022/09/24 03:41:04;;;;;;;8.57;6.22;;;;;;;5.58;100.00;98224.94;4186300;28;21329;-69
2022/09/24 03:46:02;;;;;;;8.07;5.80;;;;;;;5.52;100.00;98220.84;4186358;28;20055;-69
2022/09/24 03:51:07;;;;;;;7.50;5.55;;;;;;;5.44;100.00;98212.78;4185537;28;20703;-69
2022/09/24 03:53:08;;;;;;;7.65;5.45;;;;;;;5.40;100.00;98217.38;4186403;28;20051;-69
2022/09/24 03:55:09;;;;;;;6.57;5.70;;;;;;;5.42;100.00;98226.06;4185786;28;20041;-69
2022/09/24 03:57:13;;;;;;;6.43;5.55;;;;;;;5.40;100.00;98225.63;4186567;28;20449;-69
2022/09/24 03:59:13;;;;;;;9.10;5.95;;;;;;;5.40;100.00;98226.41;4185511;28;20041;-69
2022/09/24 04:01:19;;;;;;;6.82;5.07;;;;;;;5.42;100.00;98218.63;4186695;28;20486;-69
2022/09/24 04:03:20;;;;;;;6.57;5.07;;;;;;;5.46;100.00;98225.03;4186164;28;20784;-69
2022/09/24 04:05:21;;;;;;;8.02;6.40;;;;;;;5.42;100.00;98226.06;4186426;28;20385;-69
2022/09/24 04:07:21;;;;;;;9.13;6.05;;;;;;;5.39;100.00;98224.81;4186353;28;20358;-69
2022/09/24 04:09:22;;;;;;;7.07;5.38;;;;;;;5.39;100.00;98227.56;4185473;28;20076;-69
2022/09/24 04:11:23;;;;;;;6.50;5.60;;;;;;;5.41;100.00;98232.69;4186086;28;20049;-69
2022/09/24 04:13:24;;;;;;;7.18;5.72;;;;;;;5.36;100.00;98231.78;4186183;28;20045;-69
2022/09/24 04:15:24;;;;;;;10.00;5.95;;;;;;;5.38;100.00;98239.69;4185579;28;20044;-69
2022/09/24 04:17:30;;;;;;;7.68;5.85;;;;;;;5.38;100.00;98233.38;4186357;28;20422;-69
2022/09/24 04:19:30;;;;;;;6.93;5.60;;;;;;;5.37;100.00;98240.81;4186006;28;20062;-69
2022/09/24 04:21:31;;;;;;;6.97;5.65;;;;;;;5.38;100.00;98238.84;4186296;28;20044;-69
2022/09/24 04:23:31;;;;;;;7.00;5.07;;;;;;;5.38;100.00;98236.13;4185484;28;20690;-69
2022/09/24 04:25:32;;;;;;;7.10;5.50;;;;;;;5.42;100.00;98239.78;4186177;28;21011;-69
2022/09/24 04:27:34;;;;;;;7.85;5.00;;;;;;;5.47;100.00;98239.53;4185893;28;20044;-69
2022/09/24 04:29:35;;;;;;;;;;;;;;;5.47;100.00;98240.34;4186242;28;20472;-69
2022/09/24 04:31:35;;;;;;;8.90;5.10;;;;;;;5.48;100.00;98225.47;4185916;28;19913;-69
2022/09/24 04:33:35;;;;;;;7.15;5.20;;;;;;;5.50;100.00;98227.84;4184489;28;20055;-69
2022/09/24 04:35:36;;;;;;;8.23;5.55;;;;;;;5.48;100.00;98230.94;4187009;28;20049;-69
2022/09/24 04:37:37;;;;;;;7.55;5.63;;;;;;;5.43;100.00;98231.19;4186074;28;20920;-69
2022/09/24 04:39:37;;;;;;;7.13;5.32;;;;;;;5.45;100.00;98234.38;4185460;28;20145;-69
2022/09/24 04:41:39;;;;;;;6.72;5.35;;;;;;;5.41;100.00;98225.25;4185634;28;20131;-69
2022/09/24 04:43:39;;;;;;;7.18;5.80;;;;;;;5.43;100.00;98230.38;4185818;28;20047;-69
2022/09/24 04:45:45;;;;;;;6.70;5.53;;;;;;;5.40;100.00;98231.91;4185599;28;20231;-69
2022/09/24 04:47:51;;;;;;;6.70;5.45;;;;;;;5.39;100.00;98235.00;4185897;28;20090;-69
2022/09/24 04:49:51;;;;;;;11.13;6.32;;;;;;;5.41;100.00;98238.19;4185914;28;20091;-69
2022/09/24 04:51:52;;;;;;;8.07;6.32;;;;;;;5.37;100.00;98235.31;4185730;28;20072;-69
2022/09/24 04:53:52;;;;;;;8.90;5.57;;;;;;;5.38;100.00;98238.84;4184467;28;20685;-69
2022/09/24 04:55:52;;;;;;;8.07;5.32;;;;;;;5.35;100.00;98235.69;4187036;28;20097;-69
2022/09/24 04:57:56;;;;;;;7.53;5.82;;;;;;;5.33;100.00;98229.75;4185748;28;20076;-69
2022/09/24 04:59:57;;;;;;;6.72;5.20;;;;;;;5.34;100.00;98245.06;4186405;28;20550;-69
2022/09/24 05:01:58;;;;;;;7.40;5.10;;;;;;;5.32;100.00;98232.84;4186019;28;20044;-69
2022/09/24 05:03:58;;;;;;;8.60;5.60;;;;;;;5.34;100.00;98242.31;4185429;28;20288;-69
2022/09/24 05:05:59;;;;;;;11.05;6.00;;;;;;;5.30;100.00;98241.44;4185848;28;20036;-69
2022/09/24 05:08:00;;;;;;;7.18;5.80;;;;;;;5.30;100.00;98244.16;4185271;28;20109;-69
2022/09/24 05:10:00;;;;;;;8.20;5.97;;;;;;;5.35;100.00;98249.41;4185007;28;20048;-69
2022/09/24 05:12:01;;;;;;;7.60;6.10;;;;;;;5.32;100.00;98241.06;4178612;28;21211;-69
2022/09/24 05:14:02;;;;;;;48.17;8.35;;;;;;;5.33;100.00;98240.72;4184901;28;20040;-70
2022/09/24 05:16:02;;;;;;;8.27;5.93;;;;;;;5.34;100.00;98244.25;4188995;28;20069;-69
2022/09/24 05:18:02;;;;;;;10.27;7.82;;;;;;;5.38;100.00;98250.66;4189039;28;20113;-70
2022/09/24 05:20:03;;;;;;;10.95;7.30;;;;;;;5.36;100.00;98239.22;4188026;28;20111;-69
2022/09/24 05:22:04;;;;;;;9.57;7.82;;;;;;;5.41;100.00;98240.94;4188216;28;20028;-69
2022/09/24 05:24:05;;;;;;;10.35;7.75;;;;;;;5.42;100.00;98248.81;4188187;28;20036;-69
2022/09/24 05:28:24;;;;;;;13.95;8.15;;;;;;;5.44;100.00;98248.44;4187741;28;20099;-69
2022/09/24 05:30:25;;;;;;;11.75;8.13;;;;;;;5.43;100.00;98250.41;4187889;28;20044;-69
2022/09/24 05:32:26;;;;;;;11.55;8.48;;;;;;;5.47;100.00;98247.75;4188997;28;20040;-69
2022/09/24 05:34:27;;;;;;;10.60;7.68;;;;;;;5.54;100.00;98253.44;4189077;28;20056;-69
2022/09/24 05:36:27;;;;;;;10.13;8.07;;;;;;;5.59;100.00;98243.00;4187964;28;20037;-69
2022/09/24 05:38:28;;;;;;;10.30;8.40;;;;;;;5.64;100.00;98244.72;4188292;28;20465;-69
2022/09/24 05:40:47;;;;;;;12.57;8.48;;;;;;;5.70;100.00;98250.72;4187658;28;20454;-69
2022/09/24 05:42:47;;;;;;;10.20;8.13;;;;;;;5.72;100.00;98246.50;4187085;28;20040;-69
2022/09/24 05:44:48;;;;;;;7.95;7.13;;;;;;;5.75;100.00;98250.47;4188220;28;20597;-69
2022/09/24 05:46:49;;;;;;;9.73;7.30;;;;;;;5.77;100.00;98250.91;4188545;28;20048;-69
2022/09/24 05:48:49;;;;;;;7.95;7.03;;;;;;;5.80;100.00;98252.97;4187573;28;20041;-69
2022/09/24 05:50:54;;;;;;;8.73;6.75;;;;;;;5.80;100.00;98253.78;4187520;28;20455;-69
2022/09/24 05:52:54;;;;;;;9.65;7.22;;;;;;;5.86;100.00;98244.09;4129860;28;20056;-69
2022/09/24 05:54:55;;;;;;;9.48;6.60;;;;;;;5.91;99.42;98248.59;4199577;28;20102;-69
2022/09/24 05:56:55;;;;;;;10.13;7.78;;;;;;;5.92;99.13;98252.91;4187129;28;20480;-69
2022/09/24 05:58:55;;;;;;;11.70;8.32;;;;;;;5.99;99.54;98258.59;4187913;28;20821;-69
2022/09/24 06:00:58;;;;;;;18.10;10.18;;;;;;;6.01;99.50;98256.28;4188145;28;20044;-69
2022/09/24 06:03:12;;;;;;;18.08;11.65;;;;;;;6.03;98.67;98255.94;4187957;28;20207;-69
2022/09/24 06:05:12;;;;;;;19.48;11.80;;;;;;;6.08;98.18;98251.00;4187773;28;20607;-69
2022/09/24 06:07:13;;;;;;;20.30;12.32;;;;;;;6.10;98.54;98251.41;4187862;28;20044;-69
2022/09/24 06:09:13;;;;;;;19.85;10.32;;;;;;;6.15;98.92;98247.63;4187031;28;20064;-69
2022/09/24 06:11:13;;;;;;;14.50;9.13;;;;;;;6.13;98.38;98242.50;4188198;28;20082;-69
2022/09/24 06:13:17;;;;;;;13.45;8.57;;;;;;;6.16;98.87;98239.03;4187754;28;20052;-69
2022/09/24 06:15:19;;;;;;;11.55;8.27;;;;;;;6.17;98.67;98240.63;4187407;28;20049;-69
2022/09/24 06:17:20;;;;;;;10.50;7.18;;;;;;;6.20;98.55;98239.91;4185422;28;20457;-69
2022/09/24 06:19:20;;;;;;;8.45;6.60;;;;;;;6.22;98.03;98231.31;4184811;28;20094;-69
2022/09/24 06:21:21;;;;;;;12.40;6.68;;;;;;;6.26;97.27;98240.44;4187195;28;20645;-69
2022/09/24 06:23:21;;;;;;;10.07;7.25;;;;;;;6.27;97.51;98238.47;4188044;28;20506;-69
2022/09/24 06:25:23;;;;;;;10.52;7.63;;;;;;;6.30;97.77;98240.53;4187257;28;20437;-69
2022/09/24 06:27:24;;;;;;;9.70;7.00;;;;;;;6.30;97.21;98230.34;4188204;28;20075;-69
2022/09/24 06:29:24;;;;;;;10.90;6.80;;;;;;;6.30;97.50;98224.84;4186829;28;20048;-69
2022/09/24 06:31:24;;;;;;;7.40;6.50;;;;;;;6.31;97.65;98234.69;4186388;28;20491;-69
2022/09/24 06:33:25;;;;;;;8.70;6.25;;;;;;;6.31;97.89;98222.91;4186881;28;20059;-69
2022/09/24 06:35:25;;;;;;;8.75;5.63;;;;;;;6.32;98.56;98229.97;4185253;28;20536;-69
2022/09/24 06:37:26;;;;;;;7.95;5.80;;;;;;;6.29;98.88;98230.69;4185822;28;20428;-69
2022/09/24 06:39:26;;;;;;;7.45;6.10;;;;;;;6.26;99.53;98232.19;4186199;28;20080;-69
2022/09/24 06:41:26;;;;;;;16.52;6.80;;;;;;;6.29;98.60;98238.91;4188222;28;20052;-69
2022/09/24 06:43:27;;;;;;;7.95;5.63;;;;;;;6.32;97.85;98232.72;4187414;28;20072;-69
2022/09/24 06:45:27;;;;;;;8.52;6.22;;;;;;;6.35;97.74;98232.00;4187047;28;20687;-69
2022/09/24 06:47:29;;;;;;;8.50;6.22;;;;;;;6.40;97.30;98232.53;4187604;28;20053;-69
2022/09/24 06:49:29;;;;;;;8.77;6.28;;;;;;;6.46;97.31;98239.38;4186467;28;20083;-69
2022/09/24 06:51:29;;;;;;;13.88;8.93;;;;;;;6.53;97.65;98229.69;4186906;28;20056;-69
2022/09/24 06:53:30;;;;;;;11.18;7.45;;;;;;;6.61;97.26;98239.69;4187264;28;20067;-69
2022/09/24 06:55:30;;;;;;;12.15;8.73;;;;;;;6.64;97.12;98237.03;4186774;28;20047;-69
2022/09/24 06:57:30;;;;;;;10.68;8.73;;;;;;;6.66;97.64;98242.97;4187207;28;20457;-69
2022/09/24 06:59:31;;;;;;;11.25;8.05;;;;;;;6.67;97.58;98247.31;4187010;28;20085;-69
2022/09/24 07:01:31;;;;;;;12.82;8.05;;;;;;;6.70;98.36;98249.34;4186282;28;20056;-69
2022/09/24 07:03:33;;;;;;;13.80;8.30;;;;;;;6.78;98.50;98246.75;4187457;28;20567;-69
2022/09/24 07:05:34;;;;;;;17.15;8.40;;;;;;;6.85;98.74;98252.41;4187194;28;20374;-69
2022/09/24 07:07:36;;;;;;;11.35;7.57;;;;;;;6.88;98.83;98249.75;4188259;28;20147;-69
2022/09/24 07:09:39;;;;;;;10.40;8.38;;;;;;;6.96;98.30;98251.50;4186485;28;20041;-69
2022/09/24 07:11:40;;;;;;;11.50;8.18;;;;;;;7.00;98.25;98249.63;4186808;28;20052;-69
2022/09/24 07:13:41;;;;;;;11.40;7.65;;;;;;;7.04;97.72;98246.97;4186812;28;20481;-69
2022/09/24 07:15:42;;;;;;;8.20;7.18;;;;;;;7.09;97.63;98241.16;4186750;28;20133;-69
2022/09/24 07:17:43;;;;;;;10.82;7.13;;;;;;;7.14;97.53;98229.88;4186997;28;20056;-69
2022/09/24 07:19:43;;;;;;;9.23;6.90;;;;;;;7.23;97.51;98243.41;4186138;28;20051;-69
2022/09/24 07:21:43;;;;;;;9.93;7.05;;;;;;;7.28;97.41;98238.44;4186944;28;20370;-69
2022/09/24 07:23:44;;;;;;;9.10;7.55;;;;;;;7.36;97.32;98233.06;4186676;28;20033;-69
2022/09/24 07:25:44;;;;;;;7.50;6.30;;;;;;;7.42;97.46;98243.41;4186472;28;20443;-69
2022/09/24 07:27:44;;;;;;;9.45;6.50;;;;;;;7.50;97.56;98242.41;4186986;28;20052;-69
2022/09/24 07:29:45;;;;;;;8.45;6.63;;;;;;;7.57;97.20;98247.25;4186322;28;20040;-69
2022/09/24 07:31:45;;;;;;;10.13;6.93;;;;;;;7.67;97.51;98257.66;4186354;28;20041;-69
2022/09/24 07:33:45;;;;;;;11.98;6.80;;;;;;;7.74;97.84;98251.50;4185945;28;20043;-69
2022/09/24 07:35:46;;;;;;;9.00;6.00;;;;;;;7.83;97.08;98252.06;4186521;28;20304;-69
2022/09/24 07:37:46;;;;;;;9.98;6.13;;;;;;;7.95;97.09;98248.38;4185981;28;20056;-69
2022/09/24 07:39:46;;;;;;;13.15;6.47;;;;;;;8.05;96.09;98247.75;4186245;28;20032;-69
2022/09/24 07:41:47;;;;;;;8.57;6.60;;;;;;;8.16;94.64;98248.72;4186912;28;20071;-69
2022/09/24 07:43:47;;;;;;;7.00;5.80;;;;;;;8.27;92.71;98248.91;4186185;28;20425;-69
2022/09/24 07:45:47;;;;;;;7.30;5.57;;;;;;;8.36;92.78;98253.06;4186394;28;20036;-69
2022/09/24 07:47:59;;;;;;;9.48;6.00;;;;;;;8.50;92.66;98257.19;4186358;28;20067;-69
2022/09/24 07:50:00;;;;;;;9.88;6.20;;;;;;;8.60;89.72;98262.06;4185526;28;20048;-69
2022/09/24 07:52:01;;;;;;;8.45;6.10;;;;;;;8.68;90.28;98253.53;4187613;28;20337;-69
2022/09/24 07:54:01;;;;;;;8.93;5.78;;;;;;;8.79;91.27;98264.75;4181929;28;20570;-70
2022/09/24 07:56:01;;;;;;;6.97;5.65;;;;;;;8.91;92.24;98264.53;4180977;28;20500;-70
2022/09/24 07:58:02;;;;;;;8.15;5.82;;;;;;;9.00;91.41;98261.50;4183932;28;20377;-70
2022/09/24 08:00:02;;;;;;;7.45;5.78;;;;;;;9.08;89.90;98262.38;4185014;28;20428;-70
2022/09/24 08:02:07;;;;;;;9.55;5.72;;;;;;;9.15;88.90;98255.00;4185984;28;20480;-70
2022/09/24 08:04:08;;;;;;;8.25;5.97;;;;;;;9.28;91.25;98250.06;4184170;28;20036;-70
2022/09/24 08:06:09;;;;;;;8.32;6.00;;;;;;;9.35;91.93;98244.63;4183092;28;20489;-70
2022/09/24 08:08:09;;;;;;;10.10;5.90;;;;;;;9.44;91.24;98252.63;4182377;28;20133;-70
2022/09/24 08:10:09;;;;;;;7.28;6.20;;;;;;;9.49;90.49;98249.50;4178060;28;20024;-70
2022/09/24 08:12:11;;;;;;;8.18;6.03;;;;;;;9.60;88.20;98260.69;4182478;28;20052;-70
2022/09/24 08:14:12;;;;;;;6.25;5.40;;;;;;;9.67;87.68;98252.47;4184953;28;20434;-70
2022/09/24 08:16:15;;;;;;;7.90;5.80;;;;;;;9.75;89.29;98254.16;4183823;28;20502;-70
2022/09/24 08:18:15;;;;;;;8.68;5.68;;;;;;;9.84;89.20;98255.44;4178599;28;20044;-70
2022/09/24 08:20:16;;;;;;;8.98;6.45;;;;;;;9.93;88.65;98257.94;4176159;28;20025;-69
2022/09/24 08:22:16;;;;;;;9.25;6.68;;;;;;;10.01;87.96;98258.75;4181179;28;20028;-69
2022/09/24 08:24:17;;;;;;;8.45;6.35;;;;;;;10.12;86.86;98252.19;4178743;28;20043;-70
2022/09/24 08:26:17;;;;;;;11.20;6.47;;;;;;;10.21;83.90;98256.59;4184482;28;20021;-70
2022/09/24 08:28:18;;;;;;;8.65;5.85;;;;;;;10.27;82.83;98246.81;4184839;28;20284;-70
2022/09/24 08:30:20;;;;;;;8.10;6.55;;;;;;;10.36;83.66;98259.16;4182516;28;20123;-70
2022/09/24 08:32:20;;;;;;;8.40;6.72;;;;;;;10.45;83.11;98253.28;4182942;28;20115;-70
2022/09/24 08:34:20;;;;;;;7.43;6.70;;;;;;;10.57;82.43;98250.22;4183313;28;20071;-70
2022/09/24 08:36:21;;;;;;;7.32;6.18;;;;;;;10.70;82.19;98253.50;4187304;28;20044;-70
2022/09/24 08:38:21;;;;;;;7.63;6.60;;;;;;;10.78;82.49;98257.09;4185655;28;20050;-70
2022/09/24 08:40:25;;;;;;;7.53;6.28;;;;;;;10.90;81.71;98246.50;4185015;28;20106;-70
2022/09/24 08:42:37;;;;;;;7.10;5.70;;;;;;;11.03;79.20;98251.72;4185345;28;20047;-70
2022/09/24 08:47:23;;;;;;;6.90;5.30;;;;;;;11.34;79.14;98250.31;4185187;28;20075;-70
2022/09/24 08:49:44;;;;;;;6.75;5.53;;;;;;;11.40;78.76;98240.44;4183840;28;20044;-70
2022/09/24 08:52:19;;;;;;;6.25;5.32;;;;;;;11.47;77.86;98246.00;4189277;28;20228;-70
2022/09/24 08:54:23;;;;;;;7.55;5.50;;;;;;;11.57;79.84;98238.94;4187073;28;20695;-70
2022/09/24 08:56:29;;;;;;;6.45;5.32;;;;;;;11.63;78.21;98243.69;4188394;28;20037;-70
2022/09/24 08:59:00;;;;;;;8.05;5.55;;;;;;;11.64;78.06;98239.75;4188838;28;20041;-70
2022/09/24 09:01:09;;;;;;;5.85;5.15;;;;;;;11.72;78.30;98246.09;4187783;28;20060;-70
2022/09/24 09:03:36;;;;;;;9.40;6.18;;;;;;;11.77;77.98;98243.75;4188501;28;20127;-70
2022/09/24 09:05:48;;;;;;;7.88;5.65;;;;;;;11.85;76.16;98238.25;4190440;28;20072;-70
2022/09/24 09:08:20;;;;;;;6.75;5.88;;;;;;;11.90;77.05;98238.66;4188769;28;20052;-70
2022/09/24 09:10:30;;;;;;;7.28;5.90;;;;;;;11.99;77.66;98238.28;4158884;28;20102;-70
2022/09/24 09:12:42;;;;;;;9.60;5.57;;;;;;;12.08;77.63;98242.28;4188382;28;20059;-70
2022/09/24 09:15:00;;;;;;;7.25;5.75;;;;;;;12.24;77.01;98238.31;4188565;28;20358;-70
2022/09/24 09:17:24;;;;;;;6.70;5.70;;;;;;;12.30;76.27;98237.53;4187324;28;20044;-70
2022/09/24 09:19:32;;;;;;;6.60;5.88;;;;;;;12.46;74.94;98231.59;4188881;28;20040;-70
2022/09/24 09:21:40;;;;;;;6.32;5.60;;;;;;;12.60;74.61;98236.34;4188861;28;20090;-70
2022/09/24 09:23:48;;;;;;;6.50;5.32;;;;;;;12.71;75.59;98237.13;4188384;28;20040;-70
2022/09/24 09:25:55;;;;;;;8.18;6.03;;;;;;;12.78;75.01;98239.91;4189263;28;20098;-70
2022/09/24 09:27:59;;;;;;;7.10;5.93;;;;;;;12.84;73.00;98241.09;4187965;28;20895;-70
2022/09/24 09:30:03;;;;;;;9.98;6.32;;;;;;;12.93;71.64;98237.91;4187877;28;20115;-70
2022/09/24 09:32:37;;;;;;;7.13;6.03;;;;;;;13.04;69.68;98244.22;4189025;28;20401;-71
2022/09/24 09:34:57;;;;;;;;;;;;;;;13.05;70.09;98240.25;4172555;28;20118;-70
2022/09/24 09:37:21;;;;;;;11.85;6.30;;;;;;;13.09;72.24;98231.94;4187690;28;19990;-70
2022/09/24 09:39:49;;;;;;;10.93;6.75;;;;;;;13.11;71.89;98233.09;4159250;28;20072;-70
2022/09/24 09:42:25;;;;;;;9.50;6.85;;;;;;;13.18;69.76;98238.66;4188704;28;20048;-70
2022/09/24 09:44:28;;;;;;;7.43;6.30;;;;;;;13.21;69.59;98240.63;4146555;28;20040;-70
2022/09/24 09:46:36;;;;;;;10.23;6.57;;;;;;;13.30;68.43;98233.88;4188811;28;20029;-70
2022/09/24 09:48:53;;;;;;;7.25;6.35;;;;;;;13.33;70.30;98231.09;4186673;28;20036;-71
2022/09/24 09:51:02;;;;;;;8.27;6.38;;;;;;;13.35;69.92;98230.69;4188807;28;20079;-70
2022/09/24 09:53:04;;;;;;;7.03;5.93;;;;;;;13.36;69.75;98226.72;4188129;28;20484;-70
2022/09/24 09:55:05;;;;;;;7.97;6.63;;;;;;;13.39;68.97;98231.44;4187471;28;20040;-70
2022/09/24 09:57:10;;;;;;;8.88;6.82;;;;;;;13.39;68.67;98232.25;4188861;28;20809;-69
2022/09/24 09:59:11;;;;;;;7.10;5.93;;;;;;;13.44;68.86;98229.06;4188787;28;20162;-70
2022/09/24 10:01:14;;;;;;;7.90;6.85;;;;;;;13.48;69.07;98223.47;4187480;28;20040;-70
2022/09/24 10:03:20;;;;;;;18.48;7.82;;;;;;;13.59;68.56;98223.44;4187282;28;20041;-70
2022/09/24 10:05:24;;;;;;;10.02;6.72;;;;;;;13.63;68.24;98227.78;4184347;28;20150;-70
2022/09/24 10:07:24;;;;;;;8.20;6.13;;;;;;;13.69;67.67;98228.94;4186220;28;20082;-70
2022/09/24 10:09:25;;;;;;;9.48;7.13;;;;;;;13.75;67.77;98226.53;4130646;28;20045;-70
2022/09/24 10:11:25;;;;;;;10.10;7.53;;;;;;;13.85;68.55;98225.69;4188064;28;20075;-70
2022/09/24 10:13:26;;;;;;;9.82;7.72;;;;;;;13.94;66.94;98223.25;4188418;28;20373;-71
2022/09/24 10:15:27;;;;;;;9.23;6.55;;;;;;;14.00;66.17;98224.41;4189253;28;20044;-70
2022/09/24 10:17:32;;;;;;;8.68;7.28;;;;;;;14.03;66.08;98229.16;4187627;28;20086;-70
2022/09/24 10:19:35;;;;;;;7.88;6.88;;;;;;;14.07;66.52;98226.38;4187572;28;20381;-70